Yong Yue 7 — BKPG4 — position and weather

sailwx.info

Track history (hours):
 
Tides and Currents Weather Stations Pressure Air Temp Water Temp Dewpoint Dewpoint Depression Visibility Wind Speed Wind Dir Waves Ship Positions

Yong Yue 7

Last reported at 2018-Jun-17 16:15 UTC. Time now 2018-Jun-19 02:37 UTC.
Position N 31°01' E 122°12'.

Length 133 m; draft 6.5 m.

Type: Cargo ship. MMSI: 413415730.

Date/timePositionNaut miles runAvg speedWind from/ knotsBaromVisibWave heightAir tempDewpointWater temp
2018-Jun-17 16:15N 31°01' E 122°12'2 9.3
2018-Jun-17 16:00N 31°02' E 122°09'3 6.3
2018-Jun-17 15:30N 31°04' E 122°06'3 7.0
2018-Jun-17 15:00N 31°05' E 122°02'4 7.1
2018-Jun-17 14:30N 31°06' E 121°58'4 8.7
2018-Jun-17 14:00N 31°08' E 121°54'510.3
2018-Jun-17 13:30N 31°12' E 121°50'5 0.3
2018-Jun-16 17:42N 31°16' E 121°46'315.7
2018-Jun-16 17:30N 31°13' E 121°48'815.3
2018-Jun-16 17:00N 31°08' E 121°55'713.8
2018-Jun-16 16:30N 31°05' E 122°02'713.8
2018-Jun-16 16:00N 31°03' E 122°10'714.4
2018-Jun-16 15:30N 30°59' E 122°16'  
2018-Jun-14 01:50N 22°52' E 119°59'411.1
2018-Jun-14 01:29N 22°49' E 120°01'511.2
2018-Jun-14 01:00N 22°45' E 120°04'611.4
2018-Jun-14 00:31N 22°41' E 120°09'611.1
2018-Jun-14 00:00N 22°38' E 120°14'3 6.4
2018-Jun-13 23:30N 22°37' E 120°17'0 0.0
2018-Jun-13 23:00N 22°37' E 120°17'0 0.1
2018-Jun-13 22:17N 22°37' E 120°17'0 0.1
2018-Jun-13 21:53N 22°37' E 120°17'0 0.1
2018-Jun-13 21:29N 22°37' E 120°17'0 0.1
2018-Jun-13 20:59N 22°37' E 120°17'0 0.0
2018-Jun-13 20:29N 22°37' E 120°17'0 0.0
2018-Jun-13 19:59N 22°37' E 120°17'0 0.1
2018-Jun-13 19:29N 22°37' E 120°17'0 0.0
2018-Jun-13 18:59N 22°37' E 120°17'0 0.1
2018-Jun-13 18:29N 22°37' E 120°17'0 0.0
2018-Jun-13 17:59N 22°37' E 120°17'0 0.1
2018-Jun-13 17:10N 22°37' E 120°17'0 1.4
2018-Jun-13 16:57N 22°37' E 120°17'3 5.3
2018-Jun-13 16:22N 22°37' E 120°13'1 4.0
2018-Jun-13 16:00N 22°37' E 120°12'510.4
2018-Jun-13 15:30N 22°39' E 120°07'510.6
2018-Jun-13 14:59N 22°43' E 120°03'510.1
2018-Jun-13 14:30N 22°47' E 119°59'5 9.2
2018-Jun-13 13:58N 22°51' E 119°56'  
2018-Jun-10 14:46N 30°58' E 122°16'911.5
2018-Jun-10 14:00N 31°03' E 122°07'612.1
2018-Jun-10 13:31N 31°05' E 122°01'510.3
2018-Jun-10 13:00N 31°07' E 121°55'5 9.4
2018-Jun-10 12:30N 31°10' E 121°51'4 8.9
2018-Jun-10 12:00N 31°14' E 121°47'2010.9
2018-Jun-10 10:11N 31°26' E 121°29'1 5.5
2018-Jun-10 09:58N 31°27' E 121°28'511.0
2018-Jun-10 09:30N 31°30' E 121°24'711.1
2018-Jun-10 08:55N 31°35' E 121°18'510.4
2018-Jun-10 08:25N 31°38' E 121°14'0 0.2
2018-Jun-10 06:21N 31°39' E 121°13'0 0.0
2018-Jun-10 05:02N 31°39' E 121°13'0 0.0
2018-Jun-10 04:56N 31°39' E 121°13'0 0.0
2018-Jun-10 03:08N 31°39' E 121°13'0 0.0
2018-Jun-10 02:56N 31°39' E 121°13'0 0.0
2018-Jun-10 02:29N 31°39' E 121°13'0 0.0
2018-Jun-10 01:59N 31°39' E 121°13'0 0.0
2018-Jun-10 01:26N 31°39' E 121°13'0 0.0
2018-Jun-10 00:56N 31°39' E 121°13'0 0.0
2018-Jun-10 00:26N 31°39' E 121°13'0 0.0
2018-Jun-09 23:56N 31°39' E 121°13'0 0.0
2018-Jun-09 23:26N 31°39' E 121°13'0 0.0
2018-Jun-09 22:56N 31°39' E 121°13'0 0.0
2018-Jun-09 22:29N 31°39' E 121°13'0 0.0
2018-Jun-09 21:56N 31°39' E 121°13'0 0.0
2018-Jun-09 21:29N 31°39' E 121°13'0 0.0
2018-Jun-09 20:56N 31°39' E 121°13'0 0.0
2018-Jun-09 20:29N 31°39' E 121°13'0 0.0
2018-Jun-09 19:59N 31°39' E 121°13'0 0.0
2018-Jun-09 19:29N 31°39' E 121°13'0 0.0
2018-Jun-09 18:59N 31°39' E 121°13'0 0.0
2018-Jun-09 18:26N 31°39' E 121°13'0 0.0
2018-Jun-09 17:59N 31°39' E 121°13'0 0.0
2018-Jun-09 17:29N 31°39' E 121°13'0 0.0
2018-Jun-09 16:50N 31°39' E 121°13'0 0.0
2018-Jun-09 16:29N 31°39' E 121°13'0 0.0
2018-Jun-09 15:56N 31°39' E 121°13'0 0.0
2018-Jun-09 14:59N 31°39' E 121°13'0 0.0
2018-Jun-09 14:30N 31°39' E 121°13'0 0.6
2018-Jun-09 13:58N 31°39' E 121°14'3 5.9
2018-Jun-09 13:29N 31°37' E 121°16'3 6.6
2018-Jun-09 13:00N 31°34' E 121°19'4 8.8
2018-Jun-09 12:30N 31°32' E 121°23'611.9
2018-Jun-09 12:00N 31°28' E 121°28'610.1
2018-Jun-09 11:26N 31°24' E 121°33'1610.3
2018-Jun-09 09:55N 31°14' E 121°47'612.7
2018-Jun-09 09:26N 31°10' E 121°52'511.9
2018-Jun-09 09:00N 31°07' E 121°57'5 9.5
2018-Jun-09 08:30N 31°05' E 122°02'613.1
2018-Jun-09 08:00N 31°03' E 122°09'611.4
2018-Jun-09 07:30N 30°60' E 122°14'911.5
2018-Jun-09 06:42N 30°54' E 122°23'  
Track history (hours):
 
Tides and Currents Weather Stations Pressure Air Temp Water Temp Dewpoint Dewpoint Depression Visibility Wind Speed Wind Dir Waves Ship Positions

Yong Yue 7

Last reported at 2018-Jun-17 16:15 UTC. Time now 2018-Jun-19 02:37 UTC.
Position N 31°01' E 122°12'.

Length 133 m; draft 6.5 m.

Type: Cargo ship. MMSI: 413415730.

Date/timePositionNaut miles runAvg speedWind from/ knotsBaromVisibWave heightAir tempDewpointWater temp
2018-Jun-17 16:15N 31°01' E 122°12'2 9.3
2018-Jun-17 16:00N 31°02' E 122°09'3 6.3
2018-Jun-17 15:30N 31°04' E 122°06'3 7.0
2018-Jun-17 15:00N 31°05' E 122°02'4 7.1
2018-Jun-17 14:30N 31°06' E 121°58'4 8.7
2018-Jun-17 14:00N 31°08' E 121°54'510.3
2018-Jun-17 13:30N 31°12' E 121°50'5 0.3
2018-Jun-16 17:42N 31°16' E 121°46'315.7
2018-Jun-16 17:30N 31°13' E 121°48'815.3
2018-Jun-16 17:00N 31°08' E 121°55'713.8
2018-Jun-16 16:30N 31°05' E 122°02'713.8
2018-Jun-16 16:00N 31°03' E 122°10'714.4
2018-Jun-16 15:30N 30°59' E 122°16'  
2018-Jun-14 01:50N 22°52' E 119°59'411.1
2018-Jun-14 01:29N 22°49' E 120°01'511.2
2018-Jun-14 01:00N 22°45' E 120°04'611.4
2018-Jun-14 00:31N 22°41' E 120°09'611.1
2018-Jun-14 00:00N 22°38' E 120°14'3 6.4
2018-Jun-13 23:30N 22°37' E 120°17'0 0.0
2018-Jun-13 23:00N 22°37' E 120°17'0 0.1
2018-Jun-13 22:17N 22°37' E 120°17'0 0.1
2018-Jun-13 21:53N 22°37' E 120°17'0 0.1
2018-Jun-13 21:29N 22°37' E 120°17'0 0.1
2018-Jun-13 20:59N 22°37' E 120°17'0 0.0
2018-Jun-13 20:29N 22°37' E 120°17'0 0.0
2018-Jun-13 19:59N 22°37' E 120°17'0 0.1
2018-Jun-13 19:29N 22°37' E 120°17'0 0.0
2018-Jun-13 18:59N 22°37' E 120°17'0 0.1
2018-Jun-13 18:29N 22°37' E 120°17'0 0.0
2018-Jun-13 17:59N 22°37' E 120°17'0 0.1
2018-Jun-13 17:10N 22°37' E 120°17'0 1.4
2018-Jun-13 16:57N 22°37' E 120°17'3 5.3
2018-Jun-13 16:22N 22°37' E 120°13'1 4.0
2018-Jun-13 16:00N 22°37' E 120°12'510.4
2018-Jun-13 15:30N 22°39' E 120°07'510.6
2018-Jun-13 14:59N 22°43' E 120°03'510.1
2018-Jun-13 14:30N 22°47' E 119°59'5 9.2
2018-Jun-13 13:58N 22°51' E 119°56'  
2018-Jun-10 14:46N 30°58' E 122°16'911.5
2018-Jun-10 14:00N 31°03' E 122°07'612.1
2018-Jun-10 13:31N 31°05' E 122°01'510.3
2018-Jun-10 13:00N 31°07' E 121°55'5 9.4
2018-Jun-10 12:30N 31°10' E 121°51'4 8.9
2018-Jun-10 12:00N 31°14' E 121°47'2010.9
2018-Jun-10 10:11N 31°26' E 121°29'1 5.5
2018-Jun-10 09:58N 31°27' E 121°28'511.0
2018-Jun-10 09:30N 31°30' E 121°24'711.1
2018-Jun-10 08:55N 31°35' E 121°18'510.4
2018-Jun-10 08:25N 31°38' E 121°14'0 0.2
2018-Jun-10 06:21N 31°39' E 121°13'0 0.0
2018-Jun-10 05:02N 31°39' E 121°13'0 0.0
2018-Jun-10 04:56N 31°39' E 121°13'0 0.0
2018-Jun-10 03:08N 31°39' E 121°13'0 0.0
2018-Jun-10 02:56N 31°39' E 121°13'0 0.0
2018-Jun-10 02:29N 31°39' E 121°13'0 0.0
2018-Jun-10 01:59N 31°39' E 121°13'0 0.0
2018-Jun-10 01:26N 31°39' E 121°13'0 0.0
2018-Jun-10 00:56N 31°39' E 121°13'0 0.0
2018-Jun-10 00:26N 31°39' E 121°13'0 0.0
2018-Jun-09 23:56N 31°39' E 121°13'0 0.0
2018-Jun-09 23:26N 31°39' E 121°13'0 0.0
2018-Jun-09 22:56N 31°39' E 121°13'0 0.0
2018-Jun-09 22:29N 31°39' E 121°13'0 0.0
2018-Jun-09 21:56N 31°39' E 121°13'0 0.0
2018-Jun-09 21:29N 31°39' E 121°13'0 0.0
2018-Jun-09 20:56N 31°39' E 121°13'0 0.0
2018-Jun-09 20:29N 31°39' E 121°13'0 0.0
2018-Jun-09 19:59N 31°39' E 121°13'0 0.0
2018-Jun-09 19:29N 31°39' E 121°13'0 0.0
2018-Jun-09 18:59N 31°39' E 121°13'0 0.0
2018-Jun-09 18:26N 31°39' E 121°13'0 0.0
2018-Jun-09 17:59N 31°39' E 121°13'0 0.0
2018-Jun-09 17:29N 31°39' E 121°13'0 0.0
2018-Jun-09 16:50N 31°39' E 121°13'0 0.0
2018-Jun-09 16:29N 31°39' E 121°13'0 0.0
2018-Jun-09 15:56N 31°39' E 121°13'0 0.0
2018-Jun-09 14:59N 31°39' E 121°13'0 0.0
2018-Jun-09 14:30N 31°39' E 121°13'0 0.6
2018-Jun-09 13:58N 31°39' E 121°14'3 5.9
2018-Jun-09 13:29N 31°37' E 121°16'3 6.6
2018-Jun-09 13:00N 31°34' E 121°19'4 8.8
2018-Jun-09 12:30N 31°32' E 121°23'611.9
2018-Jun-09 12:00N 31°28' E 121°28'610.1
2018-Jun-09 11:26N 31°24' E 121°33'1610.3
2018-Jun-09 09:55N 31°14' E 121°47'612.7
2018-Jun-09 09:26N 31°10' E 121°52'511.9
2018-Jun-09 09:00N 31°07' E 121°57'5 9.5
2018-Jun-09 08:30N 31°05' E 122°02'613.1
2018-Jun-09 08:00N 31°03' E 122°09'611.4
2018-Jun-09 07:30N 30°60' E 122°14'911.5
2018-Jun-09 06:42N 30°54' E 122°23'  

Dump ship's entire track history